Time;durP1;ratioP1;P1;durP2;ratioP2;P2;SDS_P1;SDS_P2;PMS_P1;PMS_P2;Temp;Humidity;BMP_temperature;BMP_pressure;BME280_temperature;BME280_humidity;BME280_pressure;Samples;Min_cycle;Max_cycle;Signal;HPM_P1;HPM_P2
2022/09/21 00:01:08;;;;;;;12.15;7.10;;;8.60;99.90;;;;;;5094375;28;20163;-71
2022/09/21 00:03:34;;;;;;;11.02;5.40;;;8.60;99.90;;;;;;5076060;28;20048;-70
2022/09/21 00:06:05;;;;;;;9.45;5.32;;;8.60;99.90;;;;;;5076098;28;20048;-71
2022/09/21 00:08:30;;;;;;;8.63;4.18;;;8.60;99.90;;;;;;5086149;28;20123;-70
2022/09/21 00:10:56;;;;;;;7.10;3.67;;;8.60;99.90;;;;;;5094274;28;20131;-71
2022/09/21 00:13:23;;;;;;;6.53;3.00;;;8.60;99.90;;;;;;5061565;28;20063;-71
2022/09/21 00:15:49;;;;;;;8.75;3.08;;;8.60;99.90;;;;;;5094295;28;20101;-70
2022/09/21 00:18:15;;;;;;;7.55;2.72;;;8.60;99.90;;;;;;5093731;28;20036;-70
2022/09/21 00:20:44;;;;;;;7.55;2.47;;;8.60;99.90;;;;;;5094181;28;20044;-70
2022/09/21 00:23:10;;;;;;;6.72;2.40;;;8.60;99.90;;;;;;5058774;28;20052;-70
2022/09/21 00:25:35;;;;;;;6.07;2.40;;;8.60;99.90;;;;;;5093758;28;20074;-70
2022/09/21 00:28:01;;;;;;;6.90;2.58;;;8.60;99.90;;;;;;5072397;28;20044;-70
2022/09/21 00:30:27;;;;;;;6.00;2.10;;;8.60;99.90;;;;;;5093682;28;20050;-71
2022/09/21 00:32:53;;;;;;;4.82;1.85;;;8.60;99.90;;;;;;5075749;28;20135;-70
2022/09/21 00:35:20;;;;;;;5.70;1.90;;;8.60;99.90;;;;;;5064175;28;20048;-71
2022/09/21 00:37:46;;;;;;;6.80;2.25;;;8.60;99.90;;;;;;5074834;28;20047;-70
2022/09/21 00:40:11;;;;;;;6.05;2.30;;;8.60;99.90;;;;;;5078984;28;22321;-72
2022/09/21 00:42:37;;;;;;;6.07;2.25;;;8.50;99.90;;;;;;5093170;28;20429;-70
2022/09/21 00:45:05;;;;;;;5.45;2.00;;;8.50;99.90;;;;;;5075864;28;20054;-70
2022/09/21 00:47:43;;;;;;;6.30;2.20;;;8.50;99.90;;;;;;5074487;28;20051;-70
2022/09/21 00:50:13;;;;;;;7.53;2.45;;;8.50;99.90;;;;;;5075808;28;20043;-70
2022/09/21 00:52:46;;;;;;;5.88;2.22;;;8.40;99.90;;;;;;5091949;28;20046;-70
2022/09/21 00:55:31;;;;;;;5.40;2.13;;;8.40;99.90;;;;;;5075935;28;20368;-70
2022/09/21 00:58:02;;;;;;;5.90;1.83;;;8.30;99.90;;;;;;5042563;28;20079;-70
2022/09/21 01:00:27;;;;;;;5.75;2.00;;;8.30;99.90;;;;;;5075413;28;20536;-70
2022/09/21 01:03:00;;;;;;;5.03;1.77;;;8.30;99.90;;;;;;5074356;28;20123;-70
2022/09/21 01:05:26;;;;;;;5.07;1.60;;;8.30;99.90;;;;;;5075460;28;20044;-71
2022/09/21 01:07:53;;;;;;;5.10;1.60;;;8.30;99.90;;;;;;5086069;28;20169;-70
2022/09/21 01:10:20;;;;;;;6.43;1.80;;;8.30;99.90;;;;;;5058760;28;20047;-70
2022/09/21 01:13:04;;;;;;;4.45;1.80;;;8.30;99.90;;;;;;5074762;28;20059;-71
2022/09/21 01:16:27;;;;;;;6.47;2.03;;;8.30;99.90;;;;;;5059725;28;20047;-70
2022/09/21 01:18:58;;;;;;;;;;;8.30;99.90;;;;;;5017044;28;20037;-70
2022/09/21 01:21:33;;;;;;;5.22;1.40;;;8.30;99.90;;;;;;5016487;28;19924;-71
2022/09/21 01:24:36;;;;;;;4.97;1.60;;;8.20;99.90;;;;;;5038384;28;20464;-71
2022/09/21 01:27:08;;;;;;;4.45;1.52;;;8.20;99.90;;;;;;5056061;28;20055;-70
2022/09/21 01:29:58;;;;;;;4.88;1.70;;;8.20;99.90;;;;;;5093236;28;20043;-70
2022/09/21 01:32:53;;;;;;;5.28;2.00;;;8.20;99.90;;;;;;5089269;28;20036;-70
2022/09/21 01:35:33;;;;;;;7.47;2.42;;;8.20;99.90;;;;;;5052940;28;20416;-71
2022/09/21 01:38:04;;;;;;;5.07;2.10;;;8.20;99.90;;;;;;5074339;28;20410;-71
2022/09/21 01:40:37;;;;;;;7.50;2.35;;;8.10;99.90;;;;;;5060953;28;20115;-70
2022/09/21 01:43:05;;;;;;;7.22;2.20;;;8.10;99.90;;;;;;5074545;28;20119;-71
2022/09/21 01:45:39;;;;;;;5.95;2.05;;;8.10;99.90;;;;;;5070251;28;20075;-70
2022/09/21 01:48:06;;;;;;;5.25;1.92;;;8.00;99.90;;;;;;5084344;28;20055;-70
2022/09/21 01:50:40;;;;;;;6.50;2.33;;;7.90;99.90;;;;;;5069137;28;20052;-70
2022/09/21 01:53:22;;;;;;;6.40;1.92;;;7.90;99.90;;;;;;5073382;28;20427;-70
2022/09/21 01:55:50;;;;;;;;;;;7.90;99.90;;;;;;5063755;28;20051;-71
2022/09/21 01:58:38;;;;;;;5.28;2.20;;;7.90;99.90;;;;;;5096697;28;19927;-70
2022/09/21 02:01:08;;;;;;;6.22;1.90;;;7.90;99.90;;;;;;5061244;28;20059;-70
2022/09/21 02:03:42;;;;;;;5.20;1.67;;;7.90;99.90;;;;;;5084495;28;20119;-70
2022/09/21 02:06:10;;;;;;;6.20;1.80;;;8.00;99.90;;;;;;5081703;28;20417;-70
2022/09/21 02:08:37;;;;;;;4.80;1.90;;;8.00;99.90;;;;;;5061086;28;20081;-70
2022/09/21 02:11:05;;;;;;;5.75;1.70;;;8.00;99.90;;;;;;5078371;28;20371;-71
2022/09/21 02:13:35;;;;;;;6.55;2.50;;;7.90;99.90;;;;;;5081473;28;20048;-71
2022/09/21 02:16:22;;;;;;;6.03;2.20;;;7.90;99.90;;;;;;5095505;28;20051;-71
2022/09/21 02:19:08;;;;;;;5.60;2.50;;;7.80;99.90;;;;;;5096328;28;20040;-70
2022/09/21 02:21:56;;;;;;;5.53;1.90;;;7.80;99.90;;;;;;5060779;28;20379;-71
2022/09/21 02:24:34;;;;;;;5.88;2.20;;;7.80;99.90;;;;;;5076271;28;20044;-70
2022/09/21 02:27:11;;;;;;;6.05;1.90;;;7.80;99.90;;;;;;5078088;28;20070;-71
2022/09/21 02:29:52;;;;;;;5.03;1.90;;;7.70;99.90;;;;;;5078318;28;20062;-70
2022/09/21 02:32:32;;;;;;;4.93;1.80;;;7.70;99.90;;;;;;5054072;28;20185;-70
2022/09/21 02:35:07;;;;;;;5.03;1.70;;;7.70;99.90;;;;;;5087134;28;20044;-71
2022/09/21 02:37:57;;;;;;;6.93;2.60;;;7.80;99.90;;;;;;5075799;28;20527;-71
2022/09/21 02:40:41;;;;;;;7.78;2.97;;;7.80;99.90;;;;;;5095799;28;20028;-71
2022/09/21 02:43:20;;;;;;;5.78;2.63;;;7.70;99.90;;;;;;5077772;28;20460;-72
2022/09/21 02:45:58;;;;;;;6.13;2.42;;;7.60;99.90;;;;;;5077251;28;20507;-72
2022/09/21 02:48:31;;;;;;;5.22;2.40;;;7.60;99.90;;;;;;5077451;28;20471;-71
2022/09/21 02:51:02;;;;;;;4.60;1.85;;;7.60;99.90;;;;;;5091255;28;20052;-72
2022/09/21 02:53:31;;;;;;;4.70;2.03;;;7.60;99.90;;;;;;5093365;28;20043;-72
2022/09/21 02:56:03;;;;;;;8.05;2.78;;;7.50;99.90;;;;;;5077192;28;20166;-72
2022/09/21 02:58:30;;;;;;;5.25;1.98;;;7.50;99.90;;;;;;5095701;28;20040;-72
2022/09/21 03:00:58;;;;;;;4.75;1.67;;;7.40;99.90;;;;;;5077578;28;20066;-72
2022/09/21 03:03:25;;;;;;;4.20;1.70;;;7.40;99.90;;;;;;5060602;28;20044;-72
2022/09/21 03:05:53;;;;;;;3.90;1.80;;;7.40;99.90;;;;;;5078513;28;20052;-72
2022/09/21 03:08:19;;;;;;;4.75;1.70;;;7.40;99.90;;;;;;5077855;28;20039;-72
2022/09/21 03:10:45;;;;;;;5.13;1.70;;;7.40;99.90;;;;;;5072712;28;20044;-75
2022/09/21 03:13:12;;;;;;;5.47;1.70;;;7.40;99.90;;;;;;5087656;28;20051;-72
2022/09/21 03:15:39;;;;;;;4.72;1.60;;;7.40;99.90;;;;;;5083427;28;20058;-72
2022/09/21 03:18:08;;;;;;;4.57;1.70;;;7.40;99.90;;;;;;5093086;28;20294;-74
2022/09/21 03:20:35;;;;;;;4.60;1.50;;;7.50;99.90;;;;;;5048786;28;20044;-73
2022/09/21 03:23:01;;;;;;;4.53;1.60;;;7.50;99.90;;;;;;5094096;28;20039;-76
2022/09/21 03:25:29;;;;;;;4.05;1.70;;;7.50;99.90;;;;;;5063477;28;20043;-73
2022/09/21 03:27:55;;;;;;;4.30;1.55;;;7.50;99.90;;;;;;5086189;28;20428;-74
2022/09/21 03:30:22;;;;;;;5.00;1.70;;;7.50;99.90;;;;;;5093485;28;20480;-74
2022/09/21 03:32:54;;;;;;;5.20;1.75;;;7.40;99.90;;;;;;5084667;28;20051;-74
2022/09/21 03:35:22;;;;;;;3.72;1.40;;;7.40;99.90;;;;;;5077082;28;20040;-73
2022/09/21 03:37:49;;;;;;;4.60;1.60;;;7.40;99.90;;;;;;5076019;28;20048;-74
2022/09/21 03:40:16;;;;;;;4.15;1.65;;;7.40;99.90;;;;;;5076486;28;20043;-74
2022/09/21 03:42:42;;;;;;;4.22;1.67;;;7.40;99.90;;;;;;5094799;28;20043;-74
2022/09/21 03:45:09;;;;;;;3.92;1.48;;;7.40;99.90;;;;;;5073548;28;20040;-74
2022/09/21 03:47:36;;;;;;;4.07;1.50;;;7.40;99.90;;;;;;5076214;28;20040;-74
2022/09/21 03:50:02;;;;;;;3.67;1.50;;;7.80;99.90;;;;;;5094849;28;20471;-73
2022/09/21 03:52:27;;;;;;;3.97;1.40;;;7.30;99.90;;;;;;5069514;28;20147;-75
2022/09/21 03:54:54;;;;;;;4.75;1.50;;;7.30;99.90;;;;;;5071424;28;20118;-74
2022/09/21 03:57:20;;;;;;;3.97;1.63;;;7.30;99.90;;;;;;5076742;28;20043;-74
2022/09/21 03:59:45;;;;;;;4.85;1.60;;;7.30;99.90;;;;;;5060111;28;20059;-74
2022/09/21 04:02:11;;;;;;;3.67;1.40;;;7.20;99.90;;;;;;5094060;28;20040;-74
2022/09/21 04:04:37;;;;;;;4.97;1.48;;;7.20;99.90;;;;;;5094149;28;20040;-74
2022/09/21 04:07:03;;;;;;;3.33;1.40;;;7.20;99.90;;;;;;5075398;28;20527;-73
2022/09/21 04:09:30;;;;;;;3.35;1.40;;;7.20;99.90;;;;;;5091530;28;20032;-74
2022/09/21 04:11:56;;;;;;;4.57;1.83;;;7.20;99.90;;;;;;5078544;28;20051;-74
2022/09/21 04:14:22;;;;;;;4.20;1.52;;;7.20;99.90;;;;;;5094037;28;20044;-74
2022/09/21 04:16:49;;;;;;;5.43;1.70;;;7.70;99.90;;;;;;5075253;28;20130;-74
2022/09/21 04:19:15;;;;;;;4.55;1.60;;;7.10;99.90;;;;;;5075683;28;20055;-76
2022/09/21 04:21:41;;;;;;;5.38;1.60;;;7.10;99.90;;;;;;5077682;28;20040;-74
2022/09/21 04:24:06;;;;;;;4.82;1.73;;;7.20;99.90;;;;;;5093508;28;20044;-74
2022/09/21 04:26:34;;;;;;;4.50;1.73;;;7.10;99.90;;;;;;5077958;28;20061;-75
2022/09/21 04:29:00;;;;;;;5.13;1.60;;;7.10;99.90;;;;;;5076150;28;20422;-74
2022/09/21 04:31:27;;;;;;;4.20;1.60;;;7.20;99.90;;;;;;5077674;28;20137;-77
2022/09/21 04:33:55;;;;;;;4.53;1.70;;;7.10;99.90;;;;;;5070553;28;20036;-75
2022/09/21 04:36:22;;;;;;;5.28;1.50;;;7.10;99.90;;;;;;5055121;28;20048;-75
2022/09/21 04:38:48;;;;;;;4.15;1.75;;;7.00;99.90;;;;;;5090306;28;20043;-75
2022/09/21 04:41:15;;;;;;;4.35;1.80;;;7.00;99.90;;;;;;5075577;28;20491;-75
2022/09/21 04:43:43;;;;;;;4.78;1.80;;;6.90;99.90;;;;;;5075063;28;20058;-74
2022/09/21 04:46:15;;;;;;;4.72;1.60;;;7.00;99.90;;;;;;5075732;28;20121;-74
2022/09/21 04:48:41;;;;;;;4.32;1.73;;;6.90;99.90;;;;;;5072029;28;20104;-75
2022/09/21 04:51:07;;;;;;;8.77;3.50;;;6.90;99.90;;;;;;5069405;28;20052;-74
2022/09/21 04:53:35;;;;;;;6.07;2.15;;;6.80;99.90;;;;;;5084695;28;20395;-74
2022/09/21 04:56:02;;;;;;;4.82;1.90;;;6.70;99.90;;;;;;5073132;28;20052;-74
2022/09/21 04:58:28;;;;;;;5.03;1.77;;;6.70;99.90;;;;;;5093401;28;20040;-73
2022/09/21 05:00:55;;;;;;;5.53;1.90;;;6.70;99.90;;;;;;5092905;28;20441;-73
2022/09/21 05:03:22;;;;;;;4.53;1.83;;;6.70;99.90;;;;;;5093162;28;20084;-74
2022/09/21 05:05:49;;;;;;;5.07;1.70;;;6.70;99.90;;;;;;5085799;28;20048;-74
2022/09/21 05:08:16;;;;;;;4.97;1.75;;;6.70;99.90;;;;;;5076797;28;20036;-73
2022/09/21 05:10:42;;;;;;;5.15;1.70;;;6.70;99.90;;;;;;5081169;28;20186;-74
2022/09/21 05:13:08;;;;;;;4.32;1.80;;;6.70;99.90;;;;;;5075209;28;20052;-73
2022/09/21 05:15:37;;;;;;;5.72;1.77;;;6.70;99.90;;;;;;5093738;28;20071;-73
2022/09/21 05:18:03;;;;;;;4.30;1.77;;;6.70;99.90;;;;;;5069790;28;20040;-73
2022/09/21 05:20:28;;;;;;;3.90;1.58;;;6.70;99.90;;;;;;5092893;28;20040;-73
2022/09/21 05:22:54;;;;;;;3.78;1.50;;;6.80;99.90;;;;;;5076667;28;20097;-73
2022/09/21 05:25:20;;;;;;;4.30;1.55;;;6.70;99.90;;;;;;5089330;28;20478;-73
2022/09/21 05:27:46;;;;;;;5.00;1.52;;;6.70;99.90;;;;;;5092530;28;20048;-73
2022/09/21 05:30:12;;;;;;;3.80;1.58;;;6.70;99.90;;;;;;5072734;28;20039;-73
2022/09/21 05:32:55;;;;;;;3.95;1.60;;;6.60;99.90;;;;;;5079967;28;20118;-73
2022/09/21 05:35:30;;;;;;;3.55;1.52;;;6.60;99.90;;;;;;5097114;28;20035;-73
2022/09/21 05:38:00;;;;;;;4.25;1.70;;;6.60;99.90;;;;;;5063437;28;20121;-73
2022/09/21 05:40:26;;;;;;;5.90;1.67;;;6.60;99.90;;;;;;5087480;28;20032;-73
2022/09/21 05:42:52;;;;;;;4.38;1.67;;;6.60;99.90;;;;;;5088972;28;20048;-73
2022/09/21 05:45:19;;;;;;;4.90;1.55;;;6.60;99.90;;;;;;5089714;28;20139;-73
2022/09/21 05:47:56;;;;;;;4.43;1.52;;;6.70;99.90;;;;;;5078581;28;20047;-73
2022/09/21 05:51:02;;;;;;;5.43;1.60;;;6.70;99.90;;;;;;5087214;28;20040;-73
2022/09/21 05:53:47;;;;;;;3.92;1.50;;;6.70;99.90;;;;;;5022368;28;20041;-72
2022/09/21 05:56:39;;;;;;;4.53;1.80;;;6.70;99.90;;;;;;5091505;28;20058;-71
2022/09/21 05:59:35;;;;;;;3.93;1.43;;;6.70;99.90;;;;;;5079954;28;20044;-71
2022/09/21 06:02:15;;;;;;;5.18;1.70;;;6.70;99.90;;;;;;5095872;28;20289;-72
2022/09/21 06:04:41;;;;;;;6.95;2.10;;;6.70;99.90;;;;;;5094309;28;20819;-71
2022/09/21 06:07:07;;;;;;;6.32;2.20;;;6.70;99.90;;;;;;5087824;28;20467;-71
2022/09/21 06:09:33;;;;;;;4.93;1.60;;;6.70;99.90;;;;;;5089955;28;20054;-70
2022/09/21 06:11:58;;;;;;;5.55;2.13;;;6.70;99.90;;;;;;5085670;28;20098;-72
2022/09/21 06:14:25;;;;;;;4.50;1.90;;;6.60;99.90;;;;;;5089954;28;20070;-71
2022/09/21 06:16:51;;;;;;;4.95;2.25;;;6.70;99.90;;;;;;5086975;28;20063;-71
2022/09/21 06:19:17;;;;;;;6.90;3.20;;;6.70;99.90;;;;;;5071541;28;20353;-76
2022/09/21 06:21:43;;;;;;;7.88;3.08;;;6.80;99.90;;;;;;5084819;28;20091;-70
2022/09/21 06:24:09;;;;;;;9.70;3.13;;;7.20;99.90;;;;;;5082001;28;20155;-71
2022/09/21 06:26:35;;;;;;;7.45;3.00;;;7.80;99.90;;;;;;5084267;28;20105;-71
2022/09/21 06:29:00;;;;;;;6.32;2.47;;;8.50;99.90;;;;;;5077585;28;20516;-72
2022/09/21 06:31:27;;;;;;;7.72;2.58;;;9.20;99.90;;;;;;5062331;28;20044;-71
2022/09/21 06:33:53;;;;;;;5.85;2.15;;;9.70;99.90;;;;;;5061268;28;20475;-74
2022/09/21 06:36:18;;;;;;;4.85;1.90;;;10.30;99.90;;;;;;5065877;28;20036;-72
2022/09/21 06:38:44;;;;;;;4.65;1.63;;;10.80;99.90;;;;;;5064222;28;20056;-72
2022/09/21 06:41:10;;;;;;;5.22;1.70;;;11.40;99.90;;;;;;5040032;28;20045;-71
2022/09/21 06:43:36;;;;;;;8.60;1.65;;;11.50;99.90;;;;;;5058948;28;20533;-72
2022/09/21 06:46:02;;;;;;;5.20;1.70;;;12.20;99.90;;;;;;5080258;28;20456;-71
2022/09/21 06:48:29;;;;;;;5.97;1.92;;;12.90;99.90;;;;;;5074545;28;20040;-71
2022/09/21 06:50:59;;;;;;;3.90;1.50;;;13.00;99.90;;;;;;5074301;28;20456;-72
2022/09/21 06:53:26;;;;;;;4.47;1.40;;;13.60;99.90;;;;;;5066575;28;20108;-73
2022/09/21 06:55:52;;;;;;;5.40;1.70;;;14.20;99.90;;;;;;5072972;28;20441;-71
2022/09/21 06:58:18;;;;;;;5.45;1.60;;;14.40;99.90;;;;;;5022586;28;20075;-71
2022/09/21 07:00:45;;;;;;;5.35;1.45;;;14.70;99.90;;;;;;5029188;28;20504;-73
2022/09/21 07:03:14;;;;;;;6.82;1.80;;;15.00;99.90;;;;;;5031456;28;20045;-71
2022/09/21 07:05:43;;;;;;;5.32;1.70;;;14.70;99.90;;;;;;5038416;28;20049;-72
2022/09/21 07:08:09;;;;;;;4.82;1.88;;;14.20;99.90;;;;;;5033248;28;20040;-71
2022/09/21 07:10:35;;;;;;;6.15;1.65;;;13.80;99.90;;;;;;5019881;28;20041;-71
2022/09/21 07:13:04;;;;;;;7.63;1.90;;;13.50;99.90;;;;;;5040676;28;20052;-71
2022/09/21 07:15:31;;;;;;;7.35;2.08;;;13.30;99.90;;;;;;5033235;28;20049;-71
2022/09/21 07:17:58;;;;;;;6.47;2.40;;;13.10;99.90;;;;;;5014539;28;20128;-73
2022/09/21 07:20:23;;;;;;;7.72;2.42;;;12.90;99.90;;;;;;5045919;28;20049;-70
2022/09/21 07:22:49;;;;;;;9.40;2.20;;;12.80;99.90;;;;;;5033117;28;20044;-70
2022/09/21 07:25:15;;;;;;;7.82;2.60;;;12.50;99.90;;;;;;5018797;28;20083;-71
2022/09/21 07:27:41;;;;;;;9.35;2.20;;;12.40;99.90;;;;;;5052688;28;20033;-70
2022/09/21 07:30:07;;;;;;;6.80;2.58;;;12.40;99.90;;;;;;5013476;28;20493;-70
2022/09/21 07:32:33;;;;;;;8.13;2.92;;;12.40;99.90;;;;;;5034124;28;20493;-70
2022/09/21 07:34:59;;;;;;;9.20;2.80;;;12.40;99.90;;;;;;5052568;28;20048;-71
2022/09/21 07:37:26;;;;;;;9.48;2.95;;;12.40;99.90;;;;;;5018058;28;20532;-70
2022/09/21 07:39:52;;;;;;;8.48;2.70;;;12.30;99.90;;;;;;5052517;28;20037;-71
2022/09/21 07:42:20;;;;;;;9.10;2.70;;;12.30;99.90;;;;;;5051756;28;20050;-70
2022/09/21 07:44:46;;;;;;;9.93;2.67;;;12.30;99.90;;;;;;5014722;28;20053;-71
2022/09/21 07:47:13;;;;;;;8.63;2.80;;;12.30;99.90;;;;;;5032125;28;20048;-71
2022/09/21 07:49:40;;;;;;;7.72;2.45;;;12.30;99.90;;;;;;5052667;28;20048;-71
2022/09/21 07:52:07;;;;;;;8.27;2.28;;;12.20;99.90;;;;;;5049153;28;20202;-73
2022/09/21 07:54:34;;;;;;;7.55;2.38;;;12.20;99.90;;;;;;5048059;28;20052;-72
2022/09/21 07:59:44;;;;;;;7.93;2.00;;;12.20;99.90;;;;;;5033433;28;20101;-73
2022/09/21 08:02:11;;;;;;;7.38;1.95;;;12.20;99.90;;;;;;5016664;28;20076;-73
2022/09/21 08:04:37;;;;;;;9.55;1.85;;;12.20;99.90;;;;;;5036771;28;20081;-74
2022/09/21 08:07:03;;;;;;;13.13;2.13;;;12.30;99.90;;;;;;5032001;28;20049;-74
2022/09/21 08:09:29;;;;;;;7.13;1.70;;;12.30;99.90;;;;;;5032468;28;20036;-73
2022/09/21 08:11:55;;;;;;;8.65;1.75;;;12.30;99.90;;;;;;5032108;28;20412;-74
2022/09/21 08:14:21;;;;;;;8.38;1.63;;;12.30;99.90;;;;;;5013550;28;20124;-72
2022/09/21 08:16:47;;;;;;;7.40;1.40;;;12.40;99.90;;;;;;5031527;28;20152;-74
2022/09/21 08:19:16;;;;;;;8.55;1.52;;;12.40;99.90;;;;;;5014573;28;20096;-74
2022/09/21 08:21:42;;;;;;;8.13;1.55;;;12.40;99.90;;;;;;5027106;28;21223;-73
2022/09/21 08:24:09;;;;;;;6.60;1.50;;;12.40;99.90;;;;;;5031151;28;20056;-73
2022/09/21 08:26:34;;;;;;;12.63;1.70;;;12.50;99.90;;;;;;5031861;28;20044;-71
2022/09/21 08:29:00;;;;;;;9.40;1.67;;;12.60;99.90;;;;;;5031026;28;20045;-72
2022/09/21 08:31:26;;;;;;;9.77;1.70;;;12.70;99.90;;;;;;5029657;28;20404;-74
2022/09/21 08:33:54;;;;;;;9.88;1.60;;;12.90;99.90;;;;;;5029566;28;20034;-73
2022/09/21 08:36:20;;;;;;;8.00;1.40;;;13.20;99.90;;;;;;5031837;28;20046;-71
2022/09/21 08:38:46;;;;;;;8.30;1.50;;;13.40;99.90;;;;;;5030572;28;20045;-72
2022/09/21 08:41:25;;;;;;;8.45;1.80;;;13.70;99.90;;;;;;5031619;28;20044;-70
2022/09/21 08:44:06;;;;;;;7.72;1.70;;;14.20;99.90;;;;;;5028241;28;20046;-71
2022/09/21 08:46:34;;;;;;;7.32;1.55;;;14.20;99.90;;;;;;5029771;28;20437;-73
2022/09/21 08:49:05;;;;;;;8.45;1.50;;;14.40;99.90;;;;;;5028452;28;20506;-72
2022/09/21 08:51:35;;;;;;;8.63;1.70;;;14.70;99.90;;;;;;5029737;28;20115;-72
2022/09/21 08:54:33;;;;;;;8.77;1.58;;;14.90;99.90;;;;;;5029368;28;20417;-72
2022/09/21 08:56:59;;;;;;;8.85;1.70;;;15.40;99.90;;;;;;5029933;28;20060;-72
2022/09/21 08:59:25;;;;;;;10.75;1.50;;;15.70;99.90;;;;;;5031724;28;20041;-73
2022/09/21 09:02:23;;;;;;;8.38;1.60;;;15.80;99.90;;;;;;5012830;28;20432;-75
2022/09/21 09:05:12;;;;;;;9.75;1.60;;;15.90;99.90;;;;;;5006610;28;20049;-73
2022/09/21 09:08:12;;;;;;;9.48;1.60;;;16.00;99.90;;;;;;5030115;28;20041;-77
2022/09/21 09:10:44;;;;;;;9.50;1.80;;;16.30;99.90;;;;;;5029184;28;20045;-76
2022/09/21 09:13:18;;;;;;;;;;;16.30;99.90;;;;;;5038827;28;20537;-75
2022/09/21 09:15:59;;;;;;;8.98;1.80;;;16.30;99.90;;;;;;5048816;28;19920;-76
2022/09/21 09:18:44;;;;;;;7.78;1.60;;;16.40;99.90;;;;;;5049706;28;20106;-74
2022/09/21 09:21:33;;;;;;;8.68;1.50;;;16.60;99.90;;;;;;5050758;28;20076;-75
2022/09/21 09:24:08;;;;;;;8.63;1.70;;;16.80;99.90;;;;;;5032372;28;20071;-75
2022/09/21 09:26:45;;;;;;;6.70;1.50;;;16.90;99.90;;;;;;5049593;28;20057;-75
2022/09/21 09:29:10;;;;;;;9.48;1.48;;;17.10;99.90;;;;;;5047369;28;20045;-74
2022/09/21 09:31:37;;;;;;;7.85;1.50;;;17.20;99.90;;;;;;5049208;28;20049;-73
2022/09/21 09:34:23;;;;;;;6.70;1.48;;;17.40;99.90;;;;;;5027938;28;20041;-73
2022/09/21 09:37:16;;;;;;;8.00;1.65;;;17.20;99.90;;;;;;5047590;28;20033;-77
2022/09/21 09:39:53;;;;;;;7.68;1.48;;;17.40;99.90;;;;;;5008148;28;20049;-76
2022/09/21 09:42:33;;;;;;;7.68;1.48;;;17.60;99.90;;;;;;5027231;28;20041;-75
2022/09/21 09:45:20;;;;;;;8.63;1.50;;;17.70;99.90;;;;;;5044080;28;20357;-75
2022/09/21 09:48:15;;;;;;;8.82;1.35;;;17.90;99.90;;;;;;5031804;28;20373;-72
2022/09/21 09:50:41;;;;;;;8.68;1.60;;;17.90;99.90;;;;;;5031781;28;20397;-76
2022/09/21 09:53:11;;;;;;;7.45;1.45;;;18.00;99.90;;;;;;5049136;28;20122;-77
2022/09/21 09:55:49;;;;;;;6.15;1.40;;;17.90;99.00;;;;;;5033175;28;20056;-75
2022/09/21 09:58:31;;;;;;;8.45;1.45;;;18.00;98.80;;;;;;5029428;28;20056;-74
2022/09/21 10:00:57;;;;;;;7.65;1.63;;;18.10;97.30;;;;;;5048155;28;20041;-77
2022/09/21 10:03:26;;;;;;;7.38;1.50;;;18.20;96.50;;;;;;5049554;28;20090;-78
2022/09/21 10:05:52;;;;;;;7.50;1.42;;;18.30;97.10;;;;;;5048395;28;20071;-78
2022/09/21 10:08:40;;;;;;;6.95;1.52;;;18.30;96.70;;;;;;5049633;28;20065;-76
2022/09/21 10:11:07;;;;;;;6.70;1.60;;;18.40;97.30;;;;;;5032468;28;20080;-74
2022/09/21 10:13:34;;;;;;;7.80;1.50;;;18.50;96.30;;;;;;5031043;28;20159;-77
2022/09/21 10:16:04;;;;;;;7.38;1.50;;;18.50;94.60;;;;;;5050803;28;20048;-77
2022/09/21 10:18:43;;;;;;;9.25;1.70;;;18.30;93.50;;;;;;5031651;28;20128;-77
2022/09/21 10:21:20;;;;;;;5.95;1.50;;;18.30;93.90;;;;;;5043245;28;20071;-75
2022/09/21 10:23:51;;;;;;;6.07;1.50;;;18.50;94.60;;;;;;5045997;28;20056;-74
2022/09/21 10:26:18;;;;;;;7.55;1.40;;;18.70;94.80;;;;;;5046872;28;20033;-74
2022/09/21 10:29:20;;;;;;;7.40;1.48;;;18.70;92.90;;;;;;5033540;28;20420;-76
2022/09/21 10:31:57;;;;;;;6.60;1.25;;;18.70;92.30;;;;;;5020273;28;20067;-75
2022/09/21 10:34:29;;;;;;;7.40;1.33;;;18.90;90.50;;;;;;5048414;28;20160;-75
2022/09/21 10:36:56;;;;;;;6.72;1.20;;;18.80;88.50;;;;;;5020390;28;20442;-76
2022/09/21 10:39:23;;;;;;;7.07;1.30;;;18.90;77.10;;;;;;5018138;28;20392;-79
2022/09/21 10:41:57;;;;;;;5.28;1.17;;;18.90;82.20;;;;;;5046225;28;20052;-75
2022/09/21 10:44:34;;;;;;;6.13;1.30;;;18.80;82.00;;;;;;5043774;28;20037;-75
2022/09/21 10:47:14;;;;;;;6.57;1.40;;;18.60;83.40;;;;;;5037227;28;20045;-75
2022/09/21 10:49:46;;;;;;;7.65;1.30;;;18.20;86.20;;;;;;5048291;28;20073;-75
2022/09/21 10:52:11;;;;;;;5.53;1.30;;;18.10;90.90;;;;;;5045767;28;20106;-75
2022/09/21 10:54:40;;;;;;;7.28;1.48;;;17.90;91.30;;;;;;5047383;28;20065;-77
2022/09/21 10:57:17;;;;;;;6.57;1.40;;;17.70;90.30;;;;;;5033710;28;20065;-77
2022/09/21 10:59:43;;;;;;;6.15;1.27;;;17.80;90.00;;;;;;5047643;28;20057;-74
2022/09/21 11:02:30;;;;;;;7.15;1.50;;;18.10;90.50;;;;;;5047817;28;20041;-77
2022/09/21 11:05:20;;;;;;;7.53;1.52;;;18.40;90.40;;;;;;5051109;28;20068;-73
2022/09/21 11:08:22;;;;;;;7.30;1.50;;;18.80;91.50;;;;;;5026312;28;20101;-74
2022/09/21 11:11:09;;;;;;;6.53;1.33;;;19.00;91.70;;;;;;5035708;28;20099;-75
2022/09/21 11:13:38;;;;;;;7.78;1.50;;;19.20;91.40;;;;;;5051937;28;20041;-74
2022/09/21 11:16:32;;;;;;;7.60;1.50;;;19.30;91.80;;;;;;5052544;28;20049;-76
2022/09/21 11:19:09;;;;;;;5.95;1.23;;;19.10;87.80;;;;;;5027561;28;20053;-78
2022/09/21 11:21:45;;;;;;;8.30;1.40;;;19.10;88.50;;;;;;5045781;28;20073;-78
2022/09/21 11:24:31;;;;;;;7.95;1.42;;;19.00;86.00;;;;;;5035427;28;20052;-73
2022/09/21 11:27:23;;;;;;;7.28;1.50;;;18.80;89.50;;;;;;5032725;28;20084;-77
2022/09/21 11:30:16;;;;;;;7.57;1.33;;;18.60;91.00;;;;;;5047646;28;20056;-77
2022/09/21 11:32:50;;;;;;;5.75;1.40;;;18.80;90.10;;;;;;5042943;28;20060;-78
2022/09/21 11:35:40;;;;;;;5.57;1.38;;;18.80;85.90;;;;;;5052752;28;20072;-75
2022/09/21 11:38:43;;;;;;;6.00;1.27;;;18.60;84.90;;;;;;5017287;28;20055;-76
2022/09/21 11:41:55;;;;;;;6.75;1.50;;;18.60;90.40;;;;;;5052226;28;20495;-78
2022/09/21 11:44:27;;;;;;;7.15;1.42;;;18.40;87.00;;;;;;5001174;28;20067;-76
2022/09/21 11:47:20;;;;;;;7.10;1.43;;;18.00;88.60;;;;;;5046594;28;20048;-76
2022/09/21 11:49:55;;;;;;;5.55;1.23;;;18.00;90.20;;;;;;5043661;28;20292;-75
2022/09/21 11:53:05;;;;;;;5.50;1.30;;;17.80;89.30;;;;;;5053061;28;20051;-76
2022/09/21 11:56:08;;;;;;;5.90;1.38;;;17.60;90.60;;;;;;5035544;28;20056;-74
2022/09/21 11:59:19;;;;;;;8.00;1.45;;;17.50;92.00;;;;;;5008783;28;20049;-74
2022/09/21 12:02:08;;;;;;;6.10;1.40;;;17.30;91.40;;;;;;5033629;28;20056;-76
2022/09/21 12:04:56;;;;;;;6.60;1.50;;;17.10;91.70;;;;;;5048995;28;20091;-76
2022/09/21 12:07:57;;;;;;;8.02;1.50;;;16.90;91.50;;;;;;5047499;28;20051;-78
2022/09/21 12:10:25;;;;;;;7.13;1.30;;;16.80;92.60;;;;;;5036692;28;20048;-75
2022/09/21 12:13:02;;;;;;;6.03;1.50;;;16.70;93.30;;;;;;5035329;28;20048;-75
2022/09/21 12:15:41;;;;;;;9.20;1.50;;;16.60;93.70;;;;;;5054189;28;20087;-76
2022/09/21 12:18:52;;;;;;;7.95;1.50;;;16.60;95.10;;;;;;5053428;28;20068;-75
2022/09/21 12:21:24;;;;;;;6.15;1.10;;;16.40;95.10;;;;;;4958147;28;20047;-76
2022/09/21 12:23:52;;;;;;;7.43;1.38;;;16.30;94.70;;;;;;4971905;28;20051;-76
2022/09/21 12:26:37;;;;;;;5.22;1.30;;;16.30;94.70;;;;;;5006376;28;20125;-78
2022/09/21 12:29:18;;;;;;;6.72;1.30;;;16.50;94.70;;;;;;5032784;28;20045;-75
2022/09/21 12:32:01;;;;;;;6.22;1.30;;;16.60;94.70;;;;;;5051435;28;20473;-76
2022/09/21 12:34:40;;;;;;;4.80;1.00;;;16.60;94.30;;;;;;5035561;28;20036;-76
2022/09/21 12:37:09;;;;;;;5.70;1.30;;;16.60;92.30;;;;;;5034627;28;20037;-75
2022/09/21 12:39:44;;;;;;;8.18;1.30;;;16.70;92.30;;;;;;5053270;28;20072;-78
2022/09/21 12:42:21;;;;;;;8.57;1.48;;;16.80;92.10;;;;;;5031982;28;20041;-77
2022/09/21 12:45:05;;;;;;;6.68;1.40;;;16.70;91.70;;;;;;5028632;28;20485;-76
2022/09/21 12:47:59;;;;;;;6.22;1.40;;;16.60;92.60;;;;;;5035220;28;20049;-76
2022/09/21 12:50:34;;;;;;;7.10;1.30;;;16.50;93.70;;;;;;5021527;28;20041;-74
2022/09/21 12:53:00;;;;;;;6.68;1.30;;;16.50;96.20;;;;;;5031017;28;20037;-76
2022/09/21 12:55:44;;;;;;;6.35;1.20;;;16.40;98.10;;;;;;5047539;28;20124;-75
2022/09/21 12:58:39;;;;;;;5.43;1.17;;;16.30;98.00;;;;;;5023889;28;20098;-77
2022/09/21 13:01:28;;;;;;;5.68;1.23;;;16.40;96.20;;;;;;5053094;28;20049;-77
2022/09/21 13:04:22;;;;;;;7.50;1.38;;;16.20;94.90;;;;;;5052973;28;20041;-78
2022/09/21 13:07:15;;;;;;;7.13;1.38;;;16.10;95.00;;;;;;5052072;28;20094;-78
2022/09/21 13:09:43;;;;;;;6.82;1.50;;;15.90;94.00;;;;;;5031258;28;20044;-77
2022/09/21 13:12:12;;;;;;;5.82;1.30;;;15.90;94.80;;;;;;5044147;28;20544;-77
2022/09/21 13:14:46;;;;;;;5.43;1.10;;;15.80;95.20;;;;;;5034723;28;20407;-76
2022/09/21 13:17:24;;;;;;;5.28;0.90;;;16.00;94.60;;;;;;5018517;28;20041;-75
2022/09/21 13:20:05;;;;;;;6.20;1.35;;;16.30;92.30;;;;;;5052696;28;20037;-75
2022/09/21 13:22:34;;;;;;;6.28;1.40;;;16.50;91.20;;;;;;5033590;28;20048;-78
2022/09/21 13:25:14;;;;;;;6.35;1.38;;;16.40;91.40;;;;;;5034259;28;20044;-78
2022/09/21 13:28:11;;;;;;;5.57;1.10;;;16.20;91.50;;;;;;5034963;28;20094;-76